createdAt,value
2019-01-14T00:00:43.282Z,18.87
2019-01-14T00:03:13.639Z,14.07
2019-01-14T00:05:43.983Z,14.63
2019-01-14T00:08:14.215Z,12.90
2019-01-14T00:10:44.462Z,14.17
2019-01-14T00:13:14.688Z,12.00
2019-01-14T00:15:44.927Z,9.33
2019-01-14T00:18:15.116Z,12.90
2019-01-14T00:20:45.380Z,12.00
2019-01-14T00:23:15.637Z,10.50
2019-01-14T00:25:45.784Z,9.73
2019-01-14T00:28:15.957Z,10.37
2019-01-14T00:30:46.213Z,15.60
2019-01-14T00:33:16.461Z,15.80
2019-01-14T00:35:46.614Z,18.83
2019-01-14T00:38:16.781Z,19.53
2019-01-14T00:40:47.044Z,20.37
2019-01-14T00:43:17.312Z,17.37
2019-01-14T00:45:47.490Z,22.00
2019-01-14T00:48:17.663Z,22.50
2019-01-14T00:50:47.942Z,16.57
2019-01-14T00:53:18.164Z,12.07
2019-01-14T00:55:48.303Z,11.20
2019-01-14T00:58:18.470Z,11.27
2019-01-14T01:00:48.718Z,12.80
2019-01-14T01:03:19.156Z,11.10
2019-01-14T01:05:49.372Z,9.90
2019-01-14T01:08:19.721Z,10.17
2019-01-14T01:10:50.076Z,13.97
2019-01-14T01:13:20.321Z,12.67
2019-01-14T01:15:50.473Z,10.00
2019-01-14T01:18:20.705Z,11.30
2019-01-14T01:23:41.811Z,10.90
2019-01-14T01:26:12.192Z,12.00
2019-01-14T01:28:42.355Z,10.97
2019-01-14T01:31:12.603Z,10.40
2019-01-14T01:33:42.781Z,10.67
2019-01-14T01:36:13.037Z,10.10
2019-01-14T01:38:43.287Z,13.37
2019-01-14T01:41:13.437Z,11.60
2019-01-14T01:43:43.632Z,12.63
2019-01-14T01:46:13.873Z,9.63
2019-01-14T01:48:44.094Z,10.73
2019-01-14T01:51:14.235Z,10.63
2019-01-14T01:53:44.407Z,9.30
2019-01-14T01:56:14.662Z,10.10
2019-01-14T01:58:44.912Z,9.57
2019-01-14T02:01:15.088Z,10.97
2019-01-14T02:03:45.449Z,8.97
2019-01-14T02:14:43.916Z,7.30
2019-01-14T02:17:14.422Z,8.90
2019-01-14T02:19:44.581Z,7.63
2019-01-14T02:22:14.735Z,7.30
2019-01-14T02:24:44.984Z,6.40
2019-01-14T02:27:15.235Z,8.67
2019-01-14T02:29:45.379Z,7.80
2019-01-14T02:32:15.540Z,7.53
2019-01-14T02:34:45.782Z,9.43
2019-01-14T02:37:16.004Z,6.50
2019-01-14T02:39:46.169Z,12.70
2019-01-14T02:42:16.346Z,12.63
2019-01-14T02:44:46.604Z,11.40
2019-01-14T02:47:16.858Z,12.30
2019-01-14T02:49:47.015Z,15.60
2019-01-14T02:52:17.170Z,14.83
2019-01-14T02:54:47.439Z,16.27
2019-01-14T02:57:17.683Z,14.93
2019-01-14T03:03:04.284Z,15.17
2019-01-14T03:14:37.284Z,14.00
2019-01-14T03:17:07.544Z,13.27
2019-01-14T03:42:52.592Z,16.60
2019-01-14T03:45:22.843Z,16.90
2019-01-14T03:47:53.082Z,20.43
2019-01-14T03:50:44.413Z,20.47
2019-01-14T03:53:14.888Z,19.80
2019-01-14T03:55:45.146Z,18.77
2019-01-14T03:58:15.380Z,13.87
2019-01-14T04:00:45.622Z,15.20
2019-01-14T04:03:15.820Z,17.87
2019-01-14T04:05:46.064Z,14.57
2019-01-14T04:08:16.298Z,11.97
2019-01-14T04:10:46.461Z,14.50
2019-01-14T04:13:16.625Z,17.00
2019-01-14T04:15:46.959Z,17.90
2019-01-14T04:18:17.201Z,21.80
2019-01-14T04:20:47.353Z,18.33
2019-01-14T04:23:17.524Z,20.70
2019-01-14T04:25:47.792Z,16.90
2019-01-14T04:28:18.099Z,20.03
2019-01-14T04:30:48.293Z,17.27
2019-01-14T04:33:18.525Z,17.57
2019-01-14T04:35:48.687Z,22.90
2019-01-14T04:38:18.861Z,25.07
2019-01-14T04:40:49.139Z,21.20
2019-01-14T04:43:19.404Z,22.37
2019-01-14T04:45:49.564Z,15.00
2019-01-14T04:48:19.745Z,13.90
2019-01-14T04:50:50.086Z,19.40
2019-01-14T04:58:32.382Z,14.07
2019-01-14T05:01:02.845Z,15.70
2019-01-14T05:03:33.098Z,19.80
2019-01-14T05:06:03.266Z,18.40
2019-01-14T05:08:33.402Z,21.20
2019-01-14T05:11:03.675Z,23.70
2019-01-14T05:13:33.821Z,20.80
2019-01-14T05:16:04.073Z,23.53
2019-01-14T05:18:34.335Z,24.43
2019-01-14T05:21:04.503Z,21.50
2019-01-14T05:23:34.642Z,24.00
2019-01-14T05:26:04.913Z,23.93
2019-01-14T05:28:35.235Z,23.80
2019-01-14T05:31:05.383Z,25.27
2019-01-14T05:33:35.529Z,21.30
2019-01-14T05:36:25.890Z,28.20
2019-01-14T05:53:59.537Z,57.57
2019-01-14T05:56:29.892Z,45.80
2019-01-14T05:59:00.188Z,45.00
2019-01-14T06:01:30.432Z,32.07
2019-01-14T06:04:00.579Z,37.03
2019-01-14T06:06:30.755Z,32.27
2019-01-14T06:09:01.044Z,24.80
2019-01-14T06:11:31.296Z,23.17
2019-01-14T06:14:01.554Z,30.10
2019-01-14T06:16:31.711Z,54.90
2019-01-14T06:19:01.974Z,42.87
2019-01-14T06:21:32.217Z,49.67
2019-01-14T06:24:02.404Z,41.97
2019-01-14T06:26:32.579Z,55.07
2019-01-14T06:29:02.838Z,36.30
2019-01-14T06:31:33.121Z,28.03
2019-01-14T06:36:58.128Z,10.10
2019-01-14T06:45:23.228Z,11.70
2019-01-14T06:47:53.408Z,16.00
2019-01-14T06:50:23.615Z,16.07
2019-01-14T06:58:41.977Z,32.17
2019-01-14T07:10:17.869Z,58.10
2019-01-14T07:12:48.068Z,55.03
2019-01-14T07:15:18.523Z,51.67
2019-01-14T07:17:48.718Z,58.90
2019-01-14T07:20:19.129Z,64.03
2019-01-14T07:22:49.361Z,72.20
2019-01-14T07:25:19.640Z,70.30
2019-01-14T07:27:49.866Z,68.07
2019-01-14T07:30:21.446Z,63.47
2019-01-14T07:32:51.685Z,68.10
2019-01-14T07:35:21.906Z,49.87
2019-01-14T07:37:52.131Z,44.87
2019-01-14T07:40:22.441Z,49.47
2019-01-14T07:42:52.688Z,42.20
2019-01-14T07:45:22.911Z,35.20
2019-01-14T07:47:53.189Z,26.37
2019-01-14T07:50:23.551Z,26.20
2019-01-14T07:52:53.811Z,17.67
2019-01-14T07:55:24.074Z,20.90
2019-01-14T07:57:54.340Z,37.80
2019-01-14T08:03:19.718Z,27.30
2019-01-14T08:08:40.801Z,35.53
2019-01-14T08:11:11.111Z,43.77
2019-01-14T08:13:41.358Z,43.87
2019-01-14T08:16:11.645Z,43.07
2019-01-14T08:18:41.932Z,47.87
2019-01-14T08:21:12.098Z,44.00
2019-01-14T08:23:42.271Z,41.00
2019-01-14T08:26:12.523Z,42.07
2019-01-14T08:28:42.760Z,37.97
2019-01-14T08:31:12.927Z,33.67
2019-01-14T08:33:43.099Z,31.40
2019-01-14T08:36:13.447Z,33.23
2019-01-14T08:38:43.765Z,26.00
2019-01-14T08:46:45.417Z,28.03
2019-01-14T08:49:15.803Z,36.97
2019-01-14T08:51:53.101Z,22.30
2019-01-14T08:54:23.397Z,27.30
2019-01-14T08:56:53.748Z,40.60
2019-01-14T08:59:23.901Z,44.70
2019-01-14T09:01:54.166Z,26.80
2019-01-14T09:04:24.564Z,36.70
2019-01-14T09:06:54.788Z,30.77
2019-01-14T09:09:24.949Z,31.73
2019-01-14T09:11:55.274Z,43.13
2019-01-14T09:14:25.506Z,46.87
2019-01-14T09:16:55.647Z,46.70
2019-01-14T09:19:25.792Z,39.47
2019-01-14T09:21:56.052Z,41.93
2019-01-14T09:24:26.326Z,60.17
2019-01-14T09:26:56.488Z,40.97
2019-01-14T09:29:26.683Z,35.67
2019-01-14T09:37:23.763Z,65.13
2019-01-14T09:39:54.027Z,50.77
2019-01-14T09:42:27.937Z,37.30
2019-01-14T09:44:56.174Z,37.57
2019-01-14T09:47:26.448Z,27.43
2019-01-14T09:49:56.773Z,19.57
2019-01-14T09:52:28.426Z,25.80
2019-01-14T09:54:59.037Z,24.70
2019-01-14T09:57:29.413Z,22.40
2019-01-14T09:59:59.665Z,25.70
2019-01-14T10:02:29.811Z,25.23
2019-01-14T10:04:59.955Z,25.47
2019-01-14T10:07:30.223Z,25.30
2019-01-14T10:10:00.467Z,28.80
2019-01-14T10:12:30.632Z,31.10
2019-01-14T10:15:00.874Z,32.50
2019-01-14T10:20:22.215Z,34.80
2019-01-14T10:22:52.576Z,34.63
2019-01-14T10:28:22.361Z,27.97
2019-01-14T10:30:52.674Z,22.70
2019-01-14T10:33:24.358Z,22.57
2019-01-14T10:35:54.646Z,36.10
2019-01-14T10:38:24.909Z,46.13
2019-01-14T10:40:55.130Z,46.17
2019-01-14T10:43:25.459Z,30.07
2019-01-14T10:45:55.798Z,32.50
2019-01-14T10:48:26.065Z,36.40
2019-01-14T10:50:56.261Z,32.93
2019-01-14T10:53:26.522Z,27.60
2019-01-14T10:55:56.795Z,29.10
2019-01-14T10:58:26.981Z,32.47
2019-01-14T11:00:57.193Z,33.50
2019-01-14T11:03:27.408Z,31.17
2019-01-14T11:05:57.572Z,34.10
2019-01-14T11:08:27.776Z,33.03
2019-01-14T11:10:58.037Z,32.57
2019-01-14T11:13:28.236Z,32.40
2019-01-14T11:15:58.395Z,48.60
2019-01-14T11:18:28.701Z,41.13
2019-01-14T11:20:58.986Z,34.77
2019-01-14T11:23:29.205Z,32.47
2019-01-14T11:25:59.384Z,30.00
2019-01-14T11:31:25.569Z,31.27
2019-01-14T11:33:55.859Z,30.67
2019-01-14T11:36:26.045Z,24.83
2019-01-14T11:38:56.213Z,19.80
2019-01-14T11:41:27.423Z,23.70
2019-01-14T11:43:57.505Z,12.67
2019-01-14T11:46:27.769Z,18.70
2019-01-14T11:48:58.001Z,23.77
2019-01-14T11:51:28.189Z,24.83
2019-01-14T11:53:58.375Z,20.73
2019-01-14T11:56:28.642Z,23.80
2019-01-14T11:58:58.880Z,28.23
2019-01-14T12:01:29.058Z,33.97
2019-01-14T12:03:59.223Z,39.80
2019-01-14T12:06:29.494Z,43.27
2019-01-14T12:08:59.750Z,35.97
2019-01-14T12:11:29.935Z,42.93
2019-01-14T12:14:00.212Z,26.43
2019-01-14T12:16:30.482Z,19.17
2019-01-14T12:19:00.739Z,19.50
2019-01-14T12:21:30.911Z,20.47
2019-01-14T12:24:01.193Z,20.80
2019-01-14T12:26:31.492Z,30.90
2019-01-14T12:29:01.774Z,31.33
2019-01-14T12:31:31.936Z,31.40
2019-01-14T12:34:02.240Z,38.30
2019-01-14T12:36:32.546Z,56.00
2019-01-14T12:44:29.013Z,50.67
2019-01-14T12:46:59.426Z,46.17
2019-01-14T12:49:29.738Z,42.57
2019-01-14T12:51:59.895Z,34.17
2019-01-14T12:54:30.068Z,21.77
2019-01-14T12:57:00.342Z,24.80
2019-01-14T12:59:30.728Z,18.90
2019-01-14T13:02:00.935Z,21.50
2019-01-14T13:04:31.207Z,21.90
2019-01-14T13:07:01.395Z,25.47
2019-01-14T13:09:31.554Z,22.93
2019-01-14T13:12:01.911Z,22.13
2019-01-14T13:14:32.201Z,30.80
2019-01-14T13:17:02.393Z,31.73
2019-01-14T13:19:32.561Z,50.50
2019-01-14T13:22:02.857Z,24.77
2019-01-14T13:24:33.183Z,23.23
2019-01-14T13:27:03.482Z,15.60
2019-01-14T13:29:33.668Z,49.60
2019-01-14T13:32:03.964Z,41.80
2019-01-14T13:34:34.313Z,34.03
2019-01-14T13:37:04.508Z,70.20
2019-01-14T13:39:34.729Z,49.60
2019-01-14T13:42:05.207Z,39.97
2019-01-14T13:47:11.906Z,35.47
2019-01-14T13:49:42.320Z,26.87
2019-01-14T13:52:12.499Z,34.87
2019-01-14T13:54:42.702Z,40.60
2019-01-14T13:57:12.987Z,35.23
2019-01-14T13:59:43.272Z,43.10
2019-01-14T14:02:13.488Z,49.10
2019-01-14T14:04:43.763Z,48.10
2019-01-14T14:07:14.143Z,54.90
2019-01-14T14:09:44.466Z,49.10
2019-01-14T14:12:14.751Z,75.77
2019-01-14T14:14:44.936Z,89.20
2019-01-14T14:17:15.220Z,71.77
2019-01-14T14:19:45.485Z,56.40
2019-01-14T14:22:15.661Z,63.90
2019-01-14T14:24:45.912Z,62.17
2019-01-14T14:27:16.206Z,56.70
2019-01-14T14:29:46.388Z,71.17
2019-01-14T14:32:16.684Z,92.63
2019-01-14T14:34:46.961Z,61.33
2019-01-14T14:37:17.144Z,58.57
2019-01-14T14:39:48.653Z,66.50
2019-01-14T14:42:19.403Z,65.57
2019-01-14T14:44:49.679Z,59.37
2019-01-14T14:47:19.849Z,49.60
2019-01-14T14:49:50.015Z,41.10
2019-01-14T14:52:20.301Z,49.40
2019-01-14T14:54:50.594Z,56.27
2019-01-14T14:57:20.792Z,67.43
2019-01-14T14:59:51.048Z,59.60
2019-01-14T15:02:21.319Z,69.83
2019-01-14T15:04:51.502Z,53.60
2019-01-14T15:07:21.808Z,39.30
2019-01-14T15:09:55.748Z,42.83
2019-01-14T15:12:24.123Z,41.27
2019-01-14T15:14:54.508Z,41.10
2019-01-14T15:17:24.781Z,39.20
2019-01-14T15:19:55.067Z,46.50
2019-01-14T15:25:00.610Z,48.63
2019-01-14T15:30:51.323Z,69.07
2019-01-14T15:33:21.648Z,74.67
2019-01-14T15:35:51.902Z,73.67
2019-01-14T15:38:22.131Z,77.80
2019-01-14T15:40:52.390Z,72.00
2019-01-14T15:43:22.570Z,75.93
2019-01-14T15:45:52.788Z,73.00
2019-01-14T15:48:23.066Z,82.90
2019-01-14T15:50:53.236Z,87.77
2019-01-14T15:53:23.455Z,134.20
2019-01-14T15:55:53.730Z,149.53
2019-01-14T15:58:23.949Z,140.83
2019-01-14T16:00:54.109Z,131.63
2019-01-14T16:03:24.311Z,122.90
2019-01-14T16:05:54.550Z,126.87
2019-01-14T16:08:24.731Z,135.77
2019-01-14T16:10:54.886Z,111.70
2019-01-14T16:13:25.115Z,108.50
2019-01-14T16:15:55.383Z,107.83
2019-01-14T16:18:25.620Z,109.70
2019-01-14T16:20:55.849Z,111.67
2019-01-14T16:23:26.039Z,117.27
2019-01-14T16:25:56.230Z,115.37
2019-01-14T16:28:26.529Z,105.30
2019-01-14T16:30:56.786Z,106.13
2019-01-14T16:36:03.001Z,113.57
2019-01-14T16:38:33.304Z,103.00
2019-01-14T16:41:03.564Z,105.13
2019-01-14T16:43:33.805Z,120.00
2019-01-14T16:46:04.058Z,110.97
2019-01-14T16:48:34.221Z,107.50
2019-01-14T16:51:04.479Z,107.37
2019-01-14T16:53:34.743Z,103.13
2019-01-14T16:56:05.286Z,94.53
2019-01-14T16:58:35.453Z,88.80
2019-01-14T17:04:03.863Z,67.43
2019-01-14T17:06:34.008Z,90.87
2019-01-14T17:09:24.437Z,64.77
2019-01-14T17:11:54.800Z,59.80
2019-01-14T17:14:24.983Z,62.90
2019-01-14T17:16:55.219Z,67.03
2019-01-14T17:19:25.488Z,68.77
2019-01-14T17:21:55.671Z,79.53
2019-01-14T17:24:25.829Z,86.27
2019-01-14T17:26:56.070Z,85.70
2019-01-14T17:29:26.302Z,93.80
2019-01-14T17:31:56.459Z,100.53
2019-01-14T17:34:26.614Z,102.50
2019-01-14T17:36:56.867Z,121.87
2019-01-14T17:39:27.132Z,113.73
2019-01-14T17:44:48.096Z,121.00
2019-01-14T17:47:18.516Z,130.70
2019-01-14T17:49:48.771Z,126.33
2019-01-14T17:52:19.039Z,134.27
2019-01-14T17:54:49.199Z,146.27
2019-01-14T18:03:18.981Z,154.10
2019-01-14T18:05:49.220Z,170.77
2019-01-14T18:08:19.390Z,155.57
2019-01-14T18:10:49.663Z,171.87
2019-01-14T18:13:19.950Z,159.00
2019-01-14T18:15:50.113Z,166.43
2019-01-14T18:18:20.285Z,161.70
2019-01-14T18:20:50.653Z,166.23
2019-01-14T18:23:20.930Z,174.33
2019-01-14T18:25:51.091Z,177.73
2019-01-14T18:28:21.255Z,168.33
2019-01-14T18:30:51.525Z,160.37
2019-01-14T18:33:21.685Z,180.70
2019-01-14T18:35:51.934Z,164.67
2019-01-14T18:38:22.165Z,143.97
2019-01-14T18:40:52.331Z,146.03
2019-01-14T18:43:22.467Z,171.23
2019-01-14T18:45:52.798Z,133.67
2019-01-14T18:48:23.048Z,117.80
2019-01-14T18:50:53.198Z,110.03
2019-01-14T18:56:20.052Z,106.67
2019-01-14T18:58:50.305Z,117.53
2019-01-14T19:01:20.509Z,114.00
2019-01-14T19:03:50.873Z,118.40
2019-01-14T19:06:21.088Z,125.37
2019-01-14T19:08:51.316Z,157.23
2019-01-14T19:11:21.518Z,168.77
2019-01-14T19:13:51.709Z,159.43
2019-01-14T19:16:21.911Z,134.57
2019-01-14T19:18:52.105Z,116.40
2019-01-14T19:21:22.319Z,106.70
2019-01-14T19:23:52.579Z,139.60
2019-01-14T19:26:22.777Z,88.67
2019-01-14T19:28:52.942Z,71.57
2019-01-14T19:31:23.141Z,60.00
2019-01-14T19:33:53.405Z,55.10
2019-01-14T19:36:23.618Z,59.70
2019-01-14T19:38:53.781Z,47.67
2019-01-14T19:41:24.045Z,46.87
2019-01-14T19:43:54.290Z,48.70
2019-01-14T19:46:24.530Z,36.97
2019-01-14T19:48:54.696Z,43.40
2019-01-14T19:51:25.019Z,49.93
2019-01-14T19:53:55.220Z,48.97
2019-01-14T20:01:58.157Z,57.90
2019-01-14T20:04:28.324Z,73.73
2019-01-14T20:06:58.502Z,54.87
2019-01-14T20:09:28.759Z,61.57
2019-01-14T20:11:58.997Z,64.33
2019-01-14T20:14:29.240Z,67.03
2019-01-14T20:16:59.634Z,77.00
2019-01-14T20:19:29.889Z,82.53
2019-01-14T20:22:00.157Z,94.27
2019-01-14T20:24:30.450Z,97.27
2019-01-14T20:27:00.634Z,117.87
2019-01-14T20:29:30.901Z,110.27
2019-01-14T20:32:01.145Z,103.87
2019-01-14T20:34:31.297Z,106.27
2019-01-14T20:37:01.567Z,104.53
2019-01-14T20:39:31.839Z,111.43
2019-01-14T20:42:01.993Z,103.17
2019-01-14T20:44:32.246Z,105.13
2019-01-14T20:47:02.533Z,94.50
2019-01-14T20:49:32.691Z,103.53
2019-01-14T20:52:02.934Z,100.77
2019-01-14T20:54:33.195Z,106.13
2019-01-14T20:57:03.437Z,97.77
2019-01-14T20:59:38.561Z,95.33
2019-01-14T21:02:05.857Z,109.03
2019-01-14T21:04:36.279Z,101.17
2019-01-14T21:07:06.754Z,105.50
2019-01-14T21:09:37.002Z,100.70
2019-01-14T21:12:07.160Z,96.80
2019-01-14T21:14:37.459Z,87.20
2019-01-14T21:17:07.651Z,85.40
2019-01-14T21:19:38.017Z,85.90
2019-01-14T21:22:08.304Z,70.00
2019-01-14T21:27:36.029Z,67.67
2019-01-14T21:30:08.107Z,85.87
2019-01-14T21:32:38.481Z,68.87
2019-01-14T21:35:08.688Z,78.37
2019-01-14T21:37:38.831Z,82.00
2019-01-14T21:40:10.552Z,91.90
2019-01-14T21:42:40.868Z,88.00
2019-01-14T21:45:12.362Z,86.43
2019-01-14T21:47:42.543Z,93.63
2019-01-14T21:50:15.744Z,99.37
2019-01-14T21:52:46.118Z,101.13
2019-01-14T21:55:18.571Z,94.47
2019-01-14T21:57:48.872Z,97.87
2019-01-14T22:00:21.048Z,109.80
2019-01-14T22:02:51.238Z,106.63
2019-01-14T22:05:21.645Z,99.83
2019-01-14T22:07:51.949Z,100.37
2019-01-14T22:10:24.953Z,102.30
2019-01-14T22:12:55.159Z,104.20
2019-01-14T22:15:25.454Z,106.20
2019-01-14T22:17:55.779Z,93.70
2019-01-14T22:23:21.007Z,81.57
2019-01-14T22:25:51.487Z,78.17
2019-01-14T22:28:21.805Z,66.00
2019-01-14T22:30:52.112Z,61.77
2019-01-14T22:33:22.377Z,69.10
2019-01-14T22:35:52.550Z,77.80
2019-01-14T22:38:22.845Z,81.03
2019-01-14T22:40:52.990Z,84.77
2019-01-14T22:43:23.331Z,87.47
2019-01-14T22:45:53.661Z,87.03
2019-01-14T22:51:47.657Z,81.77
2019-01-14T22:54:17.936Z,86.73
2019-01-14T22:56:48.291Z,92.53
2019-01-14T22:59:18.526Z,97.77
2019-01-14T23:01:51.014Z,94.13
2019-01-14T23:04:21.259Z,96.70
2019-01-14T23:06:51.516Z,95.77
2019-01-14T23:09:21.768Z,94.70
2019-01-14T23:11:53.134Z,96.50
2019-01-14T23:14:24.062Z,95.83
2019-01-14T23:16:54.405Z,89.97
2019-01-14T23:19:24.755Z,84.40
2019-01-14T23:21:54.898Z,85.30
2019-01-14T23:24:25.061Z,92.03
2019-01-14T23:26:55.311Z,87.93
2019-01-14T23:29:25.687Z,85.27
2019-01-14T23:31:55.859Z,59.10
2019-01-14T23:34:26.038Z,55.07
2019-01-14T23:36:56.343Z,53.00
2019-01-14T23:39:26.593Z,48.60
2019-01-14T23:42:00.434Z,52.70
2019-01-14T23:44:28.841Z,43.90
2019-01-14T23:46:59.236Z,45.33
2019-01-14T23:49:29.608Z,48.10
2019-01-14T23:51:59.876Z,44.00
2019-01-14T23:54:36.739Z,48.17
2019-01-14T23:57:22.597Z,47.00
